createdAt,value
2022-10-06T00:02:19.383Z,101108.56
2022-10-06T00:07:20.853Z,101121.16
2022-10-06T00:12:22.221Z,101125.41
2022-10-06T00:17:23.589Z,101137.09
2022-10-06T00:22:24.950Z,101136.72
2022-10-06T00:27:26.411Z,101148.75
2022-10-06T00:32:27.824Z,101163.13
2022-10-06T00:37:29.651Z,101181.81
2022-10-06T00:42:32.785Z,101199.41
2022-10-06T00:47:34.206Z,101226.50
2022-10-06T00:52:35.899Z,101244.41
2022-10-06T00:57:39.688Z,101249.78
2022-10-06T01:02:55.149Z,101259.28
2022-10-06T01:07:57.123Z,101270.88
2022-10-06T01:12:59.026Z,101263.88
2022-10-06T01:18:13.250Z,101273.25
2022-10-06T01:23:15.187Z,101280.09
2022-10-06T01:28:16.616Z,101287.72
2022-10-06T01:33:19.789Z,101294.44
2022-10-06T01:38:21.446Z,101308.50
2022-10-06T01:43:22.819Z,101307.63
2022-10-06T01:48:24.778Z,101314.13
2022-10-06T01:53:26.182Z,101309.91
2022-10-06T01:58:27.907Z,101319.75
2022-10-06T02:03:29.579Z,101310.78
2022-10-06T02:08:31.516Z,101340.97
2022-10-06T02:13:33.171Z,101339.50
2022-10-06T02:18:35.598Z,101343.56
2022-10-06T02:23:37.004Z,101357.00
2022-10-06T02:28:38.501Z,101356.59
2022-10-06T02:33:40.706Z,101357.13
2022-10-06T02:38:42.363Z,101359.78
2022-10-06T02:43:43.746Z,101368.75
2022-10-06T02:48:45.107Z,101374.72
2022-10-06T02:53:48.059Z,101379.44
2022-10-06T02:58:50.959Z,101393.56
2022-10-06T03:03:53.239Z,101403.88
2022-10-06T03:09:03.539Z,101418.50
2022-10-06T03:14:05.810Z,101414.19
2022-10-06T03:19:09.163Z,101403.75
2022-10-06T03:24:11.141Z,101422.56
2022-10-06T03:29:12.871Z,101420.22
2022-10-06T03:34:14.255Z,101437.88
2022-10-06T03:39:15.643Z,101442.94
2022-10-06T03:44:17.062Z,101468.09
2022-10-06T03:49:18.503Z,101469.56
2022-10-06T03:54:19.926Z,101478.94
2022-10-06T03:59:21.270Z,101488.25
2022-10-06T04:04:22.631Z,101491.41
2022-10-06T04:09:23.993Z,101516.06
2022-10-06T04:14:25.388Z,101518.25
2022-10-06T04:19:26.761Z,101521.28
2022-10-06T04:24:28.144Z,101518.78
2022-10-06T04:29:29.519Z,101527.25
2022-10-06T04:34:30.897Z,101542.84
2022-10-06T04:39:32.285Z,101546.88
2022-10-06T04:44:33.685Z,101561.84
2022-10-06T04:49:35.161Z,101565.72
2022-10-06T04:54:36.523Z,101581.03
2022-10-06T04:59:37.932Z,101578.03
2022-10-06T05:04:39.743Z,101596.75
2022-10-06T05:09:41.166Z,101605.94
2022-10-06T05:14:42.524Z,101624.38
2022-10-06T05:19:43.905Z,101631.75
2022-10-06T05:24:45.295Z,101641.28
2022-10-06T05:29:47.158Z,101645.50
2022-10-06T05:34:48.527Z,101644.97
2022-10-06T05:39:49.886Z,101651.88
2022-10-06T05:44:51.258Z,101658.06
2022-10-06T05:49:52.626Z,101657.69
2022-10-06T05:54:53.967Z,101676.75
2022-10-06T05:59:55.303Z,101685.19
2022-10-06T06:04:56.790Z,101686.91
2022-10-06T06:09:58.161Z,101701.38
2022-10-06T06:14:59.562Z,101710.53
2022-10-06T06:20:00.930Z,101726.69
2022-10-06T06:25:02.324Z,101743.34
2022-10-06T06:30:24.130Z,101744.44
2022-10-06T06:35:25.533Z,101758.81
2022-10-06T06:40:26.893Z,101764.13
2022-10-06T06:45:34.270Z,101780.25
2022-10-06T06:50:35.674Z,101793.78
2022-10-06T06:55:37.074Z,101788.09
2022-10-06T07:00:38.451Z,101806.91
2022-10-06T07:05:39.926Z,101803.28
2022-10-06T07:10:42.943Z,101810.25
2022-10-06T07:15:49.143Z,101808.00
2022-10-06T07:20:50.574Z,101808.38
2022-10-06T07:25:51.942Z,101817.69
2022-10-06T07:30:53.381Z,101822.91
2022-10-06T07:35:54.929Z,101837.53
2022-10-06T07:46:18.867Z,101852.66
2022-10-06T07:51:20.435Z,101858.22
2022-10-06T07:56:21.862Z,101860.25
2022-10-06T08:01:23.367Z,101866.00
2022-10-06T08:06:24.829Z,101868.00
2022-10-06T08:11:26.226Z,101870.44
2022-10-06T08:16:28.005Z,101880.78
2022-10-06T08:21:31.957Z,101888.88
2022-10-06T08:26:33.346Z,101893.97
2022-10-06T08:31:34.815Z,101905.59
2022-10-06T08:36:36.433Z,101904.44
2022-10-06T08:41:43.658Z,101907.72
2022-10-06T08:47:09.627Z,101926.69
2022-10-06T08:52:29.616Z,101922.19
2022-10-06T08:57:43.713Z,101929.69
2022-10-06T09:02:47.814Z,101935.88
2022-10-06T09:08:22.454Z,101946.16
2022-10-06T09:13:40.778Z,101949.81
2022-10-06T09:19:16.451Z,101940.63
2022-10-06T09:24:20.043Z,101943.47
2022-10-06T09:29:21.645Z,101959.81
2022-10-06T09:34:46.924Z,101959.97
2022-10-06T09:39:51.683Z,101955.72
2022-10-06T09:45:03.326Z,101952.63
2022-10-06T09:50:18.476Z,101954.72
2022-10-06T09:55:20.046Z,101958.19
2022-10-06T10:00:34.451Z,101963.50
2022-10-06T10:05:47.002Z,101959.69
2022-10-06T10:10:50.845Z,101960.13
2022-10-06T10:15:59.550Z,101961.38
2022-10-06T10:21:03.733Z,101969.63
2022-10-06T10:26:42.802Z,101959.69
2022-10-06T10:32:15.248Z,101950.44
2022-10-06T10:37:29.253Z,101962.91
2022-10-06T10:42:44.333Z,101949.19
2022-10-06T10:47:49.065Z,101948.53
2022-10-06T10:52:52.328Z,101945.84
2022-10-06T10:57:56.945Z,101942.75
2022-10-06T11:03:01.027Z,101935.19
2022-10-06T11:08:21.016Z,101936.34
2022-10-06T11:13:47.087Z,101929.13
2022-10-06T11:19:16.189Z,101932.34
2022-10-06T11:24:30.700Z,101926.34
2022-10-06T11:29:53.436Z,101942.50
2022-10-06T11:34:54.972Z,101927.81
2022-10-06T11:40:16.749Z,101920.91
2022-10-06T11:45:30.718Z,101934.44
2022-10-06T11:50:37.841Z,101926.31
2022-10-06T11:55:39.358Z,101918.22
2022-10-06T12:00:44.006Z,101913.06
2022-10-06T12:06:00.732Z,101912.88
2022-10-06T12:11:02.413Z,101911.91
2022-10-06T12:17:08.392Z,101892.66
2022-10-06T12:21:58.134Z,101885.41
2022-10-06T12:27:10.858Z,101887.69
2022-10-06T12:32:30.811Z,101883.06
2022-10-06T12:37:32.183Z,101886.44
2022-10-06T12:42:33.582Z,101886.38
2022-10-06T12:47:41.218Z,101870.31
2022-10-06T12:52:53.798Z,101871.81
2022-10-06T12:57:55.229Z,101871.34
2022-10-06T13:02:57.027Z,101874.91
2022-10-06T13:08:04.455Z,101870.69
2022-10-06T13:13:21.489Z,101869.97
2022-10-06T13:18:23.211Z,101862.44
2022-10-06T13:23:33.051Z,101852.72
2022-10-06T13:28:43.334Z,101865.72
2022-10-06T13:33:48.385Z,101852.66
2022-10-06T13:38:50.278Z,101865.94
2022-10-06T13:43:59.634Z,101861.63
2022-10-06T13:49:11.330Z,101863.94
2022-10-06T13:54:32.526Z,101858.72
2022-10-06T13:59:38.143Z,101853.66
2022-10-06T14:04:39.777Z,101862.78
2022-10-06T14:09:42.207Z,101851.13
2022-10-06T14:14:52.594Z,101849.69
2022-10-06T14:19:54.465Z,101846.66
2022-10-06T14:24:55.815Z,101841.84
2022-10-06T14:29:57.513Z,101847.44
2022-10-06T14:34:59.433Z,101848.59
2022-10-06T14:40:01.367Z,101840.63
2022-10-06T14:45:03.626Z,101839.88
2022-10-06T14:50:05.575Z,101832.19
2022-10-06T14:55:07.771Z,101838.56
2022-10-06T15:00:09.928Z,101836.16
2022-10-06T15:05:11.306Z,101835.06
2022-10-06T15:10:12.718Z,101837.50
2022-10-06T15:15:14.151Z,101828.53
2022-10-06T15:20:15.614Z,101833.41
2022-10-06T15:25:17.103Z,101827.59
2022-10-06T15:30:18.452Z,101815.34
2022-10-06T15:35:19.847Z,101811.94
2022-10-06T15:40:21.211Z,101827.69
2022-10-06T15:45:22.760Z,101830.34
2022-10-06T15:50:24.326Z,101813.03
2022-10-06T15:55:25.721Z,101815.22
2022-10-06T16:00:27.082Z,101822.97
2022-10-06T16:05:28.440Z,101826.69
2022-10-06T16:10:29.788Z,101824.69
2022-10-06T16:15:31.165Z,101828.63
2022-10-06T16:20:32.546Z,101822.16
2022-10-06T16:25:45.245Z,101824.09
2022-10-06T16:30:56.232Z,101826.47
2022-10-06T16:35:58.840Z,101829.31
2022-10-06T16:41:02.033Z,101825.03
2022-10-06T16:46:05.621Z,101824.59
2022-10-06T16:51:20.289Z,101830.03
2022-10-06T16:56:21.593Z,101827.38
2022-10-06T17:01:26.281Z,101829.31
2022-10-06T17:06:27.648Z,101833.91
2022-10-06T17:11:29.097Z,101833.53
2022-10-06T17:16:33.610Z,101840.19
2022-10-06T17:21:55.737Z,101843.34
2022-10-06T17:26:57.541Z,101838.72
2022-10-06T17:31:59.884Z,101850.22
2022-10-06T17:37:02.367Z,101860.13
2022-10-06T17:42:03.988Z,101863.72
2022-10-06T17:47:05.355Z,101867.09
2022-10-06T17:52:06.749Z,101867.09
2022-10-06T17:57:08.115Z,101872.75
2022-10-06T18:02:09.638Z,101881.41
2022-10-06T18:07:11.043Z,101882.16
2022-10-06T18:12:12.439Z,101883.81
2022-10-06T18:17:13.804Z,101877.06
2022-10-06T18:22:15.178Z,101877.31
2022-10-06T18:27:16.540Z,101873.25
2022-10-06T18:37:39.690Z,101874.03
2022-10-06T18:42:41.435Z,101874.50
2022-10-06T18:47:43.195Z,101880.69
2022-10-06T18:52:44.775Z,101877.97
2022-10-06T18:57:46.212Z,101883.38
2022-10-06T19:02:50.519Z,101886.16
2022-10-06T19:07:53.679Z,101884.31
2022-10-06T19:12:55.091Z,101891.84
2022-10-06T19:17:56.485Z,101896.22
2022-10-06T19:22:57.874Z,101887.50
2022-10-06T19:27:59.267Z,101900.03
2022-10-06T19:33:00.740Z,101895.53
2022-10-06T19:38:02.142Z,101899.66
2022-10-06T19:43:03.537Z,101894.97
2022-10-06T19:48:05.012Z,101898.28
2022-10-06T19:53:06.380Z,101893.41
2022-10-06T19:58:07.798Z,101898.38
2022-10-06T20:03:09.252Z,101898.81
2022-10-06T20:08:10.659Z,101896.16
2022-10-06T20:13:12.065Z,101904.34
2022-10-06T20:18:13.517Z,101903.72
2022-10-06T20:23:14.866Z,101905.97
2022-10-06T20:28:16.277Z,101903.06
2022-10-06T20:33:17.669Z,101910.50
2022-10-06T20:38:19.041Z,101903.72
2022-10-06T20:43:20.383Z,101904.47
2022-10-06T20:48:21.748Z,101904.25
2022-10-06T20:53:28.125Z,101898.63
2022-10-06T20:58:29.489Z,101896.19
2022-10-06T21:03:32.120Z,101895.03
2022-10-06T21:08:33.463Z,101898.53
2022-10-06T21:13:34.815Z,101891.47
2022-10-06T21:18:36.195Z,101893.09
2022-10-06T21:23:47.991Z,101900.91
2022-10-06T21:28:50.111Z,101882.50
2022-10-06T21:33:52.598Z,101881.47
2022-10-06T21:38:56.910Z,101873.81
2022-10-06T21:44:09.656Z,101875.81
2022-10-06T21:49:13.446Z,101873.38
2022-10-06T21:54:15.327Z,101865.31
2022-10-06T21:59:18.427Z,101869.13
2022-10-06T22:04:19.800Z,101869.13
2022-10-06T22:09:21.164Z,101861.44
2022-10-06T22:14:22.510Z,101854.63
2022-10-06T22:19:23.878Z,101863.88
2022-10-06T22:24:25.278Z,101863.13
2022-10-06T22:29:26.725Z,101857.72
2022-10-06T22:34:28.230Z,101851.66
2022-10-06T22:39:29.575Z,101857.69
2022-10-06T22:44:30.985Z,101863.28
2022-10-06T22:49:32.325Z,101857.88
2022-10-06T22:54:33.734Z,101853.94
2022-10-06T22:59:35.252Z,101839.97
2022-10-06T23:04:36.603Z,101829.63
2022-10-06T23:09:38.000Z,101837.56
2022-10-06T23:14:39.385Z,101821.94
2022-10-06T23:19:40.821Z,101818.75
2022-10-06T23:24:42.187Z,101816.75
2022-10-06T23:29:43.573Z,101810.25
2022-10-06T23:34:45.025Z,101810.44
2022-10-06T23:39:46.471Z,101811.31
2022-10-06T23:44:47.821Z,101809.00
2022-10-06T23:49:49.360Z,101810.03
2022-10-06T23:54:50.728Z,101800.25
2022-10-06T23:59:52.183Z,101797.84
